createdAt,value
2018-05-21T00:00:51.558Z,14.30
2018-05-21T00:03:19.893Z,14.40
2018-05-21T00:05:48.162Z,14.40
2018-05-21T00:08:16.448Z,14.40
2018-05-21T00:10:44.711Z,14.40
2018-05-21T00:13:12.612Z,14.30
2018-05-21T00:15:40.888Z,14.30
2018-05-21T00:18:08.383Z,14.50
2018-05-21T00:20:37.044Z,14.30
2018-05-21T00:23:05.295Z,14.40
2018-05-21T00:25:33.206Z,14.30
2018-05-21T00:28:01.507Z,14.20
2018-05-21T00:30:29.409Z,13.60
2018-05-21T00:32:56.920Z,14.20
2018-05-21T00:35:24.420Z,13.80
2018-05-21T00:37:52.694Z,14.10
2018-05-21T00:40:20.964Z,14.10
2018-05-21T00:42:49.273Z,14.00
2018-05-21T00:45:17.182Z,14.00
2018-05-21T00:47:46.207Z,14.00
2018-05-21T00:50:14.474Z,13.90
2018-05-21T00:52:42.374Z,13.90
2018-05-21T00:55:21.816Z,13.40
2018-05-21T00:57:50.104Z,13.80
2018-05-21T01:00:17.622Z,13.90
2018-05-21T01:02:45.534Z,14.10
2018-05-21T01:05:13.808Z,13.70
2018-05-21T01:07:41.357Z,14.10
2018-05-21T01:12:38.502Z,13.40
2018-05-21T01:15:06.779Z,13.70
2018-05-21T01:17:34.298Z,13.10
2018-05-21T01:20:01.843Z,13.90
2018-05-21T01:22:29.354Z,12.90
2018-05-21T01:24:57.630Z,13.50
2018-05-21T01:29:54.000Z,13.80
2018-05-21T01:32:21.531Z,13.70
2018-05-21T01:34:49.801Z,13.30
2018-05-21T01:37:18.087Z,13.40
2018-05-21T01:39:46.362Z,13.30
2018-05-21T01:42:14.280Z,12.50
2018-05-21T01:44:41.793Z,13.10
2018-05-21T01:47:10.074Z,13.30
2018-05-21T01:49:38.362Z,13.20
2018-05-21T01:52:05.869Z,13.70
2018-05-21T01:54:33.389Z,13.70
2018-05-21T01:57:00.894Z,11.80
2018-05-21T01:59:28.807Z,13.60
2018-05-21T02:01:56.308Z,12.70
2018-05-21T02:04:24.587Z,13.00
2018-05-21T02:06:52.308Z,13.50
2018-05-21T02:09:21.343Z,13.00
2018-05-21T02:11:48.836Z,11.80
2018-05-21T02:14:16.751Z,12.90
2018-05-21T02:16:44.269Z,12.90
2018-05-21T02:19:12.569Z,12.90
2018-05-21T02:24:08.983Z,12.70
2018-05-21T02:26:37.275Z,12.90
2018-05-21T02:29:05.563Z,12.70
2018-05-21T02:31:34.227Z,12.80
2018-05-21T02:34:03.233Z,12.90
2018-05-21T02:36:32.264Z,12.90
2018-05-21T02:38:59.761Z,13.20
2018-05-21T02:43:56.507Z,12.90
2018-05-21T02:46:24.005Z,12.50
2018-05-21T02:48:53.041Z,12.90
2018-05-21T02:51:21.687Z,13.00
2018-05-21T02:53:49.973Z,12.90
2018-05-21T02:56:17.476Z,13.50
2018-05-21T02:58:44.994Z,12.80
2018-05-21T03:03:42.157Z,12.70
2018-05-21T03:06:10.465Z,12.70
2018-05-21T03:08:39.145Z,12.70
2018-05-21T03:11:08.190Z,12.60
2018-05-21T03:13:35.763Z,12.30
2018-05-21T03:16:03.677Z,12.60
2018-05-21T03:18:31.179Z,12.60
2018-05-21T03:20:59.447Z,12.50
2018-05-21T03:23:27.779Z,12.50
2018-05-21T03:25:55.314Z,12.20
2018-05-21T03:28:22.843Z,12.20
2018-05-21T03:30:50.367Z,13.10
2018-05-21T03:33:17.937Z,12.80
2018-05-21T03:35:45.839Z,14.10
2018-05-21T03:38:14.159Z,12.50
2018-05-21T03:40:41.667Z,12.20
2018-05-21T03:43:09.567Z,12.20
2018-05-21T03:45:37.454Z,12.40
2018-05-21T03:48:04.976Z,12.10
2018-05-21T03:50:32.922Z,12.50
2018-05-21T03:53:01.211Z,12.50
2018-05-21T03:55:28.735Z,10.00
2018-05-21T03:57:56.341Z,12.80
2018-05-21T04:00:36.593Z,12.50
2018-05-21T04:03:16.835Z,12.40
2018-05-21T04:05:44.343Z,12.80
2018-05-21T04:08:11.844Z,13.30
2018-05-21T04:10:39.373Z,13.20
2018-05-21T04:13:06.880Z,12.80
2018-05-21T04:15:35.162Z,12.50
2018-05-21T04:18:03.064Z,14.30
2018-05-21T04:20:30.575Z,11.40
2018-05-21T04:22:59.602Z,12.60
2018-05-21T04:25:27.116Z,12.20
2018-05-21T04:27:54.687Z,13.00
2018-05-21T04:30:22.215Z,12.70
2018-05-21T04:32:49.722Z,12.10
2018-05-21T04:35:17.214Z,13.10
2018-05-21T04:37:45.530Z,12.90
2018-05-21T04:40:13.030Z,13.40
2018-05-21T04:42:41.310Z,13.00
2018-05-21T04:45:08.820Z,12.40
2018-05-21T04:47:36.382Z,12.40
2018-05-21T04:50:03.889Z,13.80
2018-05-21T04:52:31.404Z,12.30
2018-05-21T04:54:58.938Z,14.80
2018-05-21T04:57:26.460Z,12.90
2018-05-21T04:59:53.982Z,13.30
2018-05-21T05:02:22.292Z,13.20
2018-05-21T05:04:49.845Z,13.30
2018-05-21T05:07:18.150Z,13.40
2018-05-21T05:09:46.077Z,13.40
2018-05-21T05:12:13.577Z,13.40
2018-05-21T05:14:41.113Z,13.40
2018-05-21T05:17:09.374Z,13.60
2018-05-21T05:19:36.912Z,13.60
2018-05-21T05:22:04.488Z,13.90
2018-05-21T05:24:31.964Z,13.80
2018-05-21T05:27:00.265Z,13.90
2018-05-21T05:29:27.784Z,14.20
2018-05-21T05:31:55.314Z,15.70
2018-05-21T05:34:22.824Z,13.60
2018-05-21T05:36:51.138Z,14.20
2018-05-21T05:39:18.652Z,14.50
2018-05-21T05:41:46.944Z,14.40
2018-05-21T05:44:14.856Z,14.40
2018-05-21T05:46:42.572Z,14.10
2018-05-21T05:49:10.845Z,14.50
2018-05-21T05:51:39.153Z,14.70
2018-05-21T05:54:07.046Z,15.70
2018-05-21T05:56:34.667Z,14.60
2018-05-21T05:59:02.188Z,14.10
2018-05-21T06:01:29.697Z,15.10
2018-05-21T06:03:57.216Z,14.40
2018-05-21T06:06:25.474Z,15.10
2018-05-21T06:08:52.987Z,17.10
2018-05-21T06:11:20.489Z,15.30
2018-05-21T06:13:48.062Z,13.90
2018-05-21T06:16:15.922Z,15.80
2018-05-21T06:18:43.445Z,15.90
2018-05-21T06:21:10.937Z,16.50
2018-05-21T06:23:38.828Z,15.80
2018-05-21T06:26:07.113Z,16.90
2018-05-21T06:28:35.370Z,17.00
2018-05-21T06:31:02.891Z,18.10
2018-05-21T06:33:30.383Z,17.20
2018-05-21T06:35:57.934Z,18.20
2018-05-21T06:38:25.829Z,17.50
2018-05-21T06:40:54.111Z,18.10
2018-05-21T06:43:22.387Z,18.20
2018-05-21T06:45:50.661Z,18.60
2018-05-21T06:48:18.597Z,18.70
2018-05-21T06:50:46.090Z,19.10
2018-05-21T06:53:14.375Z,18.60
2018-05-21T06:55:41.885Z,18.60
2018-05-21T06:58:09.403Z,18.90
2018-05-21T07:00:36.917Z,19.20
2018-05-21T07:03:04.812Z,18.80
2018-05-21T07:05:32.323Z,19.60
2018-05-21T07:08:00.029Z,19.90
2018-05-21T07:10:27.451Z,19.70
2018-05-21T07:12:54.960Z,19.80
2018-05-21T07:15:22.499Z,19.50
2018-05-21T07:17:50.397Z,19.80
2018-05-21T07:20:17.917Z,19.90
2018-05-21T07:22:45.415Z,19.20
2018-05-21T07:25:12.933Z,21.40
2018-05-21T07:27:41.223Z,20.50
2018-05-21T07:30:09.519Z,20.60
2018-05-21T07:32:37.025Z,21.90
2018-05-21T07:35:04.949Z,21.00
2018-05-21T07:37:32.465Z,20.40
2018-05-21T07:39:59.999Z,21.10
2018-05-21T07:42:27.502Z,22.00
2018-05-21T07:44:55.879Z,21.30
2018-05-21T07:47:23.329Z,22.30
2018-05-21T07:49:50.833Z,20.90
2018-05-21T07:52:18.351Z,21.50
2018-05-21T07:54:46.258Z,22.00
2018-05-21T07:57:13.769Z,21.50
2018-05-21T07:59:41.262Z,22.50
2018-05-21T08:02:08.776Z,21.40
2018-05-21T08:04:36.294Z,22.20
2018-05-21T08:07:03.814Z,21.10
2018-05-21T08:09:31.717Z,22.10
2018-05-21T08:11:59.258Z,22.20
2018-05-21T08:14:26.768Z,22.60
2018-05-21T08:16:54.278Z,22.60
2018-05-21T08:19:21.798Z,22.40
2018-05-21T08:21:49.329Z,23.40
2018-05-21T08:24:16.858Z,22.60
2018-05-21T08:26:44.450Z,23.50
2018-05-21T08:29:11.923Z,23.30
2018-05-21T08:31:39.827Z,23.90
2018-05-21T08:34:08.095Z,24.00
2018-05-21T08:36:36.076Z,24.40
2018-05-21T08:39:07.080Z,24.20
2018-05-21T08:41:34.608Z,24.80
2018-05-21T08:44:02.126Z,24.10
2018-05-21T08:46:30.447Z,24.40
2018-05-21T08:48:57.996Z,24.40
2018-05-21T08:51:25.907Z,24.20
2018-05-21T08:53:53.408Z,24.00
2018-05-21T08:56:20.938Z,24.70
2018-05-21T08:58:48.504Z,24.20
2018-05-21T09:01:15.994Z,25.80
2018-05-21T09:03:43.500Z,25.20
2018-05-21T09:06:11.023Z,27.00
2018-05-21T09:08:39.308Z,25.40
2018-05-21T09:11:06.831Z,26.50
2018-05-21T09:13:35.110Z,26.10
2018-05-21T09:16:03.379Z,26.30
2018-05-21T09:18:31.668Z,26.10
2018-05-21T09:20:59.176Z,26.10
2018-05-21T09:23:26.696Z,26.40
2018-05-21T09:25:54.222Z,26.80
2018-05-21T09:28:22.516Z,26.50
2018-05-21T09:30:50.807Z,26.70
2018-05-21T09:33:18.318Z,26.00
2018-05-21T09:35:45.847Z,26.70
2018-05-21T09:38:13.345Z,26.50
2018-05-21T09:40:41.643Z,27.10
2018-05-21T09:43:09.900Z,27.20
2018-05-21T09:45:37.413Z,27.00
2018-05-21T09:48:04.970Z,27.20
2018-05-21T09:50:33.227Z,27.00
2018-05-21T09:53:01.156Z,27.20
2018-05-21T09:55:28.671Z,26.90
2018-05-21T09:57:56.544Z,26.30
2018-05-21T10:00:24.441Z,27.80
2018-05-21T10:02:51.954Z,27.30
2018-05-21T10:05:19.495Z,26.40
2018-05-21T10:07:46.990Z,28.30
2018-05-21T10:10:14.891Z,28.00
2018-05-21T10:12:42.794Z,26.90
2018-05-21T10:15:11.806Z,27.30
2018-05-21T10:17:40.105Z,27.60
2018-05-21T10:20:07.617Z,28.50
2018-05-21T10:22:35.887Z,28.00
2018-05-21T10:25:04.175Z,28.30
2018-05-21T10:27:32.443Z,28.20
2018-05-21T10:30:00.771Z,28.30
2018-05-21T10:32:28.269Z,27.90
2018-05-21T10:34:55.792Z,27.20
2018-05-21T10:37:23.708Z,27.10
2018-05-21T10:39:51.259Z,26.40
2018-05-21T10:42:19.519Z,27.10
2018-05-21T10:44:47.029Z,26.60
2018-05-21T10:47:14.558Z,27.60
2018-05-21T10:49:42.909Z,27.60
2018-05-21T10:52:11.136Z,27.50
2018-05-21T10:54:38.666Z,28.20
2018-05-21T10:57:06.194Z,28.50
2018-05-21T10:59:33.710Z,28.70
2018-05-21T11:02:01.273Z,28.10
2018-05-21T11:04:28.830Z,28.20
2018-05-21T11:06:56.362Z,27.90
2018-05-21T11:09:24.636Z,27.90
2018-05-21T11:11:52.166Z,28.10
2018-05-21T11:14:19.670Z,28.30
2018-05-21T11:16:47.946Z,28.20
2018-05-21T11:19:16.222Z,27.20
2018-05-21T11:21:44.486Z,26.60
2018-05-21T11:24:12.005Z,27.70
2018-05-21T11:26:39.896Z,27.70
2018-05-21T11:29:07.415Z,28.30
2018-05-21T11:31:34.933Z,28.10
2018-05-21T11:34:04.520Z,28.60
2018-05-21T11:36:32.046Z,29.60
2018-05-21T11:38:59.573Z,29.50
2018-05-21T11:41:27.849Z,29.50
2018-05-21T11:43:56.131Z,29.30
2018-05-21T11:46:24.427Z,29.40
2018-05-21T11:48:51.940Z,28.60
2018-05-21T11:51:19.500Z,28.80
2018-05-21T11:53:47.419Z,27.30
2018-05-21T11:56:14.954Z,27.70
2018-05-21T11:58:42.465Z,27.80
2018-05-21T12:01:10.028Z,28.30
2018-05-21T12:03:37.531Z,28.80
2018-05-21T12:06:05.819Z,29.10
2018-05-21T12:08:33.352Z,28.80
2018-05-21T12:11:01.639Z,28.80
2018-05-21T12:13:29.965Z,28.10
2018-05-21T12:15:57.464Z,26.30
2018-05-21T12:18:25.770Z,26.40
2018-05-21T12:20:53.290Z,25.50
2018-05-21T12:23:21.647Z,25.10
2018-05-21T12:25:49.157Z,24.00
2018-05-21T12:28:16.682Z,23.90
2018-05-21T12:30:45.698Z,23.70
2018-05-21T12:33:13.606Z,23.60
2018-05-21T12:35:41.106Z,22.90
2018-05-21T12:38:09.112Z,23.40
2018-05-21T12:40:36.947Z,23.60
2018-05-21T12:43:04.454Z,23.50
2018-05-21T12:45:31.980Z,23.00
2018-05-21T12:47:59.913Z,22.60
2018-05-21T12:50:27.440Z,23.90
2018-05-21T12:52:54.949Z,23.20
2018-05-21T12:55:22.487Z,22.50
2018-05-21T12:57:49.996Z,24.30
2018-05-21T13:00:17.537Z,24.10
2018-05-21T13:02:45.849Z,24.60
2018-05-21T13:05:13.435Z,24.30
2018-05-21T13:07:41.654Z,24.60
2018-05-21T13:10:09.925Z,24.60
2018-05-21T13:12:38.207Z,24.40
2018-05-21T13:15:06.509Z,24.30
2018-05-21T13:17:34.034Z,23.70
2018-05-21T13:20:02.311Z,24.40
2018-05-21T13:22:30.611Z,24.40
2018-05-21T13:24:58.892Z,24.40
2018-05-21T13:27:26.403Z,24.90
2018-05-21T13:29:53.913Z,24.60
2018-05-21T13:32:21.432Z,24.40
2018-05-21T13:34:50.466Z,24.60
2018-05-21T13:37:18.031Z,24.60
2018-05-21T13:39:46.324Z,24.10
2018-05-21T13:42:13.830Z,23.70
2018-05-21T13:44:41.371Z,23.00
2018-05-21T13:47:08.896Z,23.20
2018-05-21T13:49:36.815Z,23.50
2018-05-21T13:52:04.318Z,23.20
2018-05-21T13:54:31.844Z,23.60
2018-05-21T13:57:00.129Z,23.80
2018-05-21T13:59:28.407Z,23.80
2018-05-21T14:01:56.715Z,23.90
2018-05-21T14:04:24.225Z,23.80
2018-05-21T14:06:51.751Z,23.50
2018-05-21T14:09:19.256Z,23.60
2018-05-21T14:11:47.571Z,23.80
2018-05-21T14:14:15.851Z,23.80
2018-05-21T14:16:43.363Z,24.00
2018-05-21T14:19:11.685Z,23.70
2018-05-21T14:21:39.610Z,24.00
2018-05-21T14:24:07.111Z,23.20
2018-05-21T14:26:34.611Z,22.70
2018-05-21T14:29:02.165Z,23.20
2018-05-21T14:31:29.661Z,22.70
2018-05-21T14:33:57.554Z,23.70
2018-05-21T14:36:25.077Z,23.10
2018-05-21T14:38:53.359Z,23.10
2018-05-21T14:41:21.646Z,23.20
2018-05-21T14:43:49.176Z,23.30
2018-05-21T14:46:16.739Z,23.80
2018-05-21T14:48:45.026Z,23.60
2018-05-21T14:51:13.316Z,23.70
2018-05-21T14:53:40.826Z,23.60
2018-05-21T14:56:08.365Z,23.40
2018-05-21T14:58:35.953Z,24.20
2018-05-21T15:01:03.486Z,22.30
2018-05-21T15:03:31.020Z,24.80
2018-05-21T15:05:58.929Z,24.00
2018-05-21T15:08:27.202Z,24.10
2018-05-21T15:10:54.730Z,24.10
2018-05-21T15:13:22.258Z,24.10
2018-05-21T15:15:50.548Z,24.10
2018-05-21T15:18:19.135Z,24.10
2018-05-21T15:20:47.067Z,24.00
2018-05-21T15:23:14.578Z,23.50
2018-05-21T15:25:42.094Z,23.80
2018-05-21T15:28:09.623Z,23.70
2018-05-21T15:30:37.899Z,23.80
2018-05-21T15:33:05.402Z,23.70
2018-05-21T15:35:33.324Z,23.30
2018-05-21T15:38:00.841Z,24.10
2018-05-21T15:40:29.118Z,24.00
2018-05-21T15:42:56.636Z,24.00
2018-05-21T15:45:24.136Z,24.40
2018-05-21T15:47:51.658Z,23.30
2018-05-21T15:50:19.841Z,25.00
2018-05-21T15:52:47.470Z,23.70
2018-05-21T15:55:14.975Z,23.40
2018-05-21T15:57:43.306Z,23.80
2018-05-21T16:00:11.552Z,23.90
2018-05-21T16:02:39.464Z,23.90
2018-05-21T16:05:07.007Z,23.00
2018-05-21T16:07:35.282Z,23.80
2018-05-21T16:10:02.790Z,23.70
2018-05-21T16:12:31.074Z,23.80
2018-05-21T16:14:59.344Z,23.80
2018-05-21T16:17:27.282Z,23.80
2018-05-21T16:19:54.789Z,23.60
2018-05-21T16:22:22.378Z,24.00
2018-05-21T16:24:51.021Z,23.60
2018-05-21T16:27:19.314Z,23.40
2018-05-21T16:29:46.826Z,23.50
2018-05-21T16:32:14.328Z,23.90
2018-05-21T16:34:41.880Z,23.50
2018-05-21T16:37:10.148Z,23.00
2018-05-21T16:39:38.411Z,23.00
2018-05-21T16:42:05.932Z,22.50
2018-05-21T16:44:33.448Z,22.20
2018-05-21T16:47:01.754Z,22.70
2018-05-21T16:49:29.262Z,23.40
2018-05-21T16:51:56.791Z,23.30
2018-05-21T16:54:24.314Z,21.90
2018-05-21T16:56:51.851Z,22.40
2018-05-21T16:59:19.770Z,21.90
2018-05-21T17:01:48.052Z,22.10
2018-05-21T17:04:15.982Z,22.00
2018-05-21T17:06:43.504Z,21.90
2018-05-21T17:09:11.051Z,21.70
2018-05-21T17:11:39.335Z,21.80
2018-05-21T17:14:06.834Z,21.50
2018-05-21T17:16:35.139Z,21.80
2018-05-21T17:19:02.653Z,21.00
2018-05-21T17:21:30.169Z,22.00
2018-05-21T17:23:57.715Z,22.70
2018-05-21T17:26:25.263Z,21.60
2018-05-21T17:28:52.776Z,20.30
2018-05-21T17:31:20.316Z,21.40
2018-05-21T17:33:47.877Z,21.10
2018-05-21T17:36:16.927Z,21.30
2018-05-21T17:38:44.464Z,21.10
2018-05-21T17:41:11.999Z,21.00
2018-05-21T17:43:39.566Z,21.60
2018-05-21T17:46:07.096Z,20.50
2018-05-21T17:48:35.001Z,21.10
2018-05-21T17:51:02.944Z,21.00
2018-05-21T17:53:32.134Z,21.00
2018-05-21T17:55:59.678Z,22.00
2018-05-21T17:58:27.616Z,20.90
2018-05-21T18:00:55.924Z,20.90
2018-05-21T18:03:23.440Z,20.70
2018-05-21T18:05:51.780Z,20.80
2018-05-21T18:08:19.722Z,20.70
2018-05-21T18:10:47.654Z,20.50
2018-05-21T18:13:15.620Z,20.50
2018-05-21T18:15:43.137Z,20.90
2018-05-21T18:18:11.968Z,20.30
2018-05-21T18:20:39.480Z,19.90
2018-05-21T18:23:07.088Z,20.10
2018-05-21T18:25:34.735Z,20.20
2018-05-21T18:28:03.805Z,20.00
2018-05-21T18:30:32.182Z,20.50
2018-05-21T18:33:00.172Z,20.70
2018-05-21T18:35:28.533Z,20.00
2018-05-21T18:37:56.042Z,16.80
2018-05-21T18:40:25.232Z,19.70
2018-05-21T18:42:54.022Z,19.40
2018-05-21T18:45:21.588Z,19.60
2018-05-21T18:47:49.897Z,19.20
2018-05-21T18:50:17.833Z,19.20
2018-05-21T18:52:45.773Z,19.50
2018-05-21T18:55:13.336Z,19.10
2018-05-21T18:57:41.596Z,19.00
2018-05-21T19:00:10.370Z,17.80
2018-05-21T19:02:38.608Z,18.70
2018-05-21T19:05:06.907Z,18.70
2018-05-21T19:07:34.956Z,18.50
2018-05-21T19:10:03.310Z,18.50
2018-05-21T19:15:00.765Z,17.70
2018-05-21T19:17:29.087Z,18.10
2018-05-21T19:19:57.048Z,18.40
2018-05-21T19:22:25.051Z,18.60
2018-05-21T19:24:52.767Z,17.50
2018-05-21T19:27:20.341Z,17.00
2018-05-21T19:29:49.159Z,18.00
2018-05-21T19:32:17.488Z,17.90
2018-05-21T19:34:46.656Z,18.10
2018-05-21T19:37:15.011Z,17.30
2018-05-21T19:39:43.203Z,17.70
2018-05-21T19:42:11.497Z,19.50
2018-05-21T19:44:40.178Z,17.60
2018-05-21T19:47:08.055Z,17.50
2018-05-21T19:49:35.756Z,16.20
2018-05-21T19:52:05.398Z,17.40
2018-05-21T19:54:32.952Z,17.20
2018-05-21T19:57:01.292Z,17.20
2018-05-21T19:59:28.854Z,17.40
2018-05-21T20:01:58.318Z,17.40
2018-05-21T20:04:27.746Z,17.00
2018-05-21T20:06:55.403Z,16.90
2018-05-21T20:09:23.722Z,17.20
2018-05-21T20:11:53.096Z,16.30
2018-05-21T20:14:20.642Z,16.80
2018-05-21T20:19:17.892Z,17.50
2018-05-21T20:21:46.234Z,17.10
2018-05-21T20:24:13.813Z,16.90
2018-05-21T20:26:42.578Z,16.40
2018-05-21T20:29:10.908Z,16.30
2018-05-21T20:31:38.431Z,16.30
2018-05-21T20:36:34.886Z,17.40
2018-05-21T20:39:02.422Z,17.20
2018-05-21T20:41:30.824Z,16.10
2018-05-21T20:43:58.375Z,16.50
2018-05-21T20:46:25.949Z,15.90
2018-05-21T20:48:53.459Z,16.60
2018-05-21T20:51:21.779Z,16.10
2018-05-21T20:56:19.233Z,16.00
2018-05-21T20:58:47.554Z,15.90
2018-05-21T21:01:15.180Z,16.40
2018-05-21T21:03:43.103Z,15.90
2018-05-21T21:06:10.621Z,17.30
2018-05-21T21:08:38.158Z,15.60
2018-05-21T21:11:06.053Z,15.50
2018-05-21T21:13:33.605Z,16.10
2018-05-21T21:16:01.104Z,15.60
2018-05-21T21:18:29.069Z,15.60
2018-05-21T21:23:25.552Z,15.00
2018-05-21T21:25:53.039Z,15.70
2018-05-21T21:28:20.561Z,15.60
2018-05-21T21:30:48.852Z,15.50
2018-05-21T21:33:16.772Z,15.20
2018-05-21T21:35:44.293Z,15.00
2018-05-21T21:38:12.561Z,15.40
2018-05-21T21:43:05.895Z,15.40
2018-05-21T21:45:33.407Z,15.80
2018-05-21T21:48:01.686Z,15.40
2018-05-21T21:50:29.944Z,15.50
2018-05-21T21:52:57.457Z,14.60
2018-05-21T21:55:24.962Z,15.30
2018-05-21T21:57:52.473Z,16.00
2018-05-21T22:00:20.757Z,15.60
2018-05-21T22:02:48.273Z,15.50
2018-05-21T22:05:16.539Z,15.50
2018-05-21T22:07:44.046Z,15.80
2018-05-21T22:10:11.555Z,15.00
2018-05-21T22:12:39.871Z,15.50
2018-05-21T22:15:07.387Z,14.90
2018-05-21T22:17:34.893Z,15.80
2018-05-21T22:20:02.811Z,15.40
2018-05-21T22:22:30.325Z,15.20
2018-05-21T22:24:58.244Z,15.20
2018-05-21T22:27:25.733Z,13.60
2018-05-21T22:29:53.239Z,15.70
2018-05-21T22:32:21.147Z,15.60
2018-05-21T22:34:49.030Z,15.70
2018-05-21T22:37:16.553Z,15.70
2018-05-21T22:39:44.819Z,15.60
2018-05-21T22:42:12.333Z,15.70
2018-05-21T22:44:41.782Z,15.00
2018-05-21T22:47:09.311Z,15.10
2018-05-21T22:49:36.803Z,15.50
2018-05-21T22:52:04.313Z,15.40
2018-05-21T22:54:35.379Z,15.60
2018-05-21T22:57:02.887Z,15.20
2018-05-21T22:59:31.169Z,15.60
2018-05-21T23:01:59.059Z,15.60
2018-05-21T23:04:26.957Z,15.40
2018-05-21T23:06:54.851Z,15.30
2018-05-21T23:09:22.355Z,16.20
2018-05-21T23:11:49.855Z,15.80
2018-05-21T23:14:18.887Z,15.60
2018-05-21T23:16:46.392Z,15.40
2018-05-21T23:19:13.907Z,17.20
2018-05-21T23:21:42.569Z,15.40
2018-05-21T23:24:10.068Z,14.60
2018-05-21T23:26:37.576Z,15.20
2018-05-21T23:29:05.088Z,14.80
2018-05-21T23:31:32.992Z,15.30
2018-05-21T23:34:00.486Z,15.20
2018-05-21T23:36:28.767Z,15.20
2018-05-21T23:38:57.033Z,15.20
2018-05-21T23:41:25.303Z,15.10
2018-05-21T23:43:52.799Z,15.10
2018-05-21T23:46:20.686Z,15.50
2018-05-21T23:48:48.192Z,14.60
2018-05-21T23:51:16.455Z,15.10
2018-05-21T23:53:43.971Z,15.20
2018-05-21T23:56:11.475Z,14.90
2018-05-21T23:58:39.386Z,14.60
